Aviation Digital Data Service (ADDS)

Output produced by METARs form (2255 UTC 23 October 2019)
found at http://www.aviationweather.gov/metar/data/
 
Forecast for: WIII (SOEKARNO-HATTA I, ID)
Text: TAF WIII 231700Z 2318/2424 21005KT 5000 HZ FEW020
Forecast period: 1800 UTC 23 October 2019 to 0100 UTC 24 October 2019
Forecast type: FROM: standard forecast or significant change
Winds: from the SSW (210 degrees) at 6 MPH (5 knots; 2.6 m/s)
Visibility: 3 miles (5 km)
Ceiling: at least 12,000 feet AGL
Clouds: few clouds at 2000 feet AGL
Weather: HZ  (haze)
Text: BECMG 2401/2403 02010KT 9999 NSW
Forecast period: 0100 UTC 24 October 2019 to 0000 UTC 25 October 2019
Forecast type: BECOMING: Conditions expected to become as follows by 0300 UTC 24 October 2019
Winds: from the NNE (20 degrees) at 12 MPH (10 knots; 5.1 m/s)
Visibility: 6 or more miles 10+ km)
Ceiling: at least 12,000 feet AGL
Clouds: few clouds at 2000 feet AGL
Weather: NSW  (no significant weather)